sensor_id;sensor_type;location;lat;lon;timestamp;P1;durP1;ratioP1;P2;durP2;ratioP2
54699;SDS011;40599;53.132;6.090;2023-08-12T00:02:33;22.97;;;16.37;;
54699;SDS011;40599;53.132;6.090;2023-08-12T00:05:00;16.70;;;6.90;;
54699;SDS011;40599;53.132;6.090;2023-08-12T00:07:26;12.88;;;4.45;;
54699;SDS011;40599;53.132;6.090;2023-08-12T00:09:52;10.73;;;3.90;;
54699;SDS011;40599;53.132;6.090;2023-08-12T00:12:18;8.80;;;3.90;;
54699;SDS011;40599;53.132;6.090;2023-08-12T00:14:44;10.85;;;3.92;;
54699;SDS011;40599;53.132;6.090;2023-08-12T00:17:10;8.02;;;3.20;;
54699;SDS011;40599;53.132;6.090;2023-08-12T00:19:36;8.80;;;3.50;;
54699;SDS011;40599;53.132;6.090;2023-08-12T00:22:03;9.43;;;4.13;;
54699;SDS011;40599;53.132;6.090;2023-08-12T00:26:55;8.57;;;4.30;;
54699;SDS011;40599;53.132;6.090;2023-08-12T00:29:21;7.53;;;4.53;;
54699;SDS011;40599;53.132;6.090;2023-08-12T00:31:48;9.07;;;4.28;;
54699;SDS011;40599;53.132;6.090;2023-08-12T00:34:14;10.38;;;4.40;;
54699;SDS011;40599;53.132;6.090;2023-08-12T00:36:40;12.95;;;4.70;;
54699;SDS011;40599;53.132;6.090;2023-08-12T00:39:06;6.68;;;3.72;;
54699;SDS011;40599;53.132;6.090;2023-08-12T00:41:32;11.23;;;4.35;;
54699;SDS011;40599;53.132;6.090;2023-08-12T00:43:58;9.70;;;4.15;;
54699;SDS011;40599;53.132;6.090;2023-08-12T00:46:24;10.00;;;4.50;;
54699;SDS011;40599;53.132;6.090;2023-08-12T00:48:51;6.85;;;4.25;;
54699;SDS011;40599;53.132;6.090;2023-08-12T00:51:17;8.23;;;3.83;;
54699;SDS011;40599;53.132;6.090;2023-08-12T00:53:43;9.35;;;3.80;;
54699;SDS011;40599;53.132;6.090;2023-08-12T00:56:11;10.17;;;4.27;;
54699;SDS011;40599;53.132;6.090;2023-08-12T00:58:38;8.40;;;3.28;;
54699;SDS011;40599;53.132;6.090;2023-08-12T01:01:04;9.45;;;3.60;;
54699;SDS011;40599;53.132;6.090;2023-08-12T01:03:30;7.85;;;3.47;;
54699;SDS011;40599;53.132;6.090;2023-08-12T01:05:57;6.57;;;3.83;;
54699;SDS011;40599;53.132;6.090;2023-08-12T01:08:24;11.32;;;4.35;;
54699;SDS011;40599;53.132;6.090;2023-08-12T01:10:54;6.57;;;4.00;;
54699;SDS011;40599;53.132;6.090;2023-08-12T01:13:27;9.13;;;4.03;;
54699;SDS011;40599;53.132;6.090;2023-08-12T01:15:56;8.20;;;4.20;;
54699;SDS011;40599;53.132;6.090;2023-08-12T01:18:23;9.73;;;4.27;;
54699;SDS011;40599;53.132;6.090;2023-08-12T01:23:16;8.70;;;3.97;;
54699;SDS011;40599;53.132;6.090;2023-08-12T01:25:42;5.88;;;3.83;;
54699;SDS011;40599;53.132;6.090;2023-08-12T01:28:08;9.95;;;4.10;;
54699;SDS011;40599;53.132;6.090;2023-08-12T01:30:36;7.20;;;3.95;;
54699;SDS011;40599;53.132;6.090;2023-08-12T01:33:39;7.27;;;4.40;;
54699;SDS011;40599;53.132;6.090;2023-08-12T01:35:58;9.40;;;4.13;;
54699;SDS011;40599;53.132;6.090;2023-08-12T01:38:26;9.20;;;4.80;;
54699;SDS011;40599;53.132;6.090;2023-08-12T01:40:52;10.10;;;4.43;;
54699;SDS011;40599;53.132;6.090;2023-08-12T01:43:19;8.37;;;4.93;;
54699;SDS011;40599;53.132;6.090;2023-08-12T01:45:46;11.98;;;4.55;;
54699;SDS011;40599;53.132;6.090;2023-08-12T01:48:12;10.05;;;5.07;;
54699;SDS011;40599;53.132;6.090;2023-08-12T01:50:38;10.15;;;5.82;;
54699;SDS011;40599;53.132;6.090;2023-08-12T01:53:05;10.18;;;5.40;;
54699;SDS011;40599;53.132;6.090;2023-08-12T01:55:31;10.68;;;5.05;;
54699;SDS011;40599;53.132;6.090;2023-08-12T01:57:57;10.75;;;6.40;;
54699;SDS011;40599;53.132;6.090;2023-08-12T02:00:23;11.48;;;5.80;;
54699;SDS011;40599;53.132;6.090;2023-08-12T02:02:49;11.60;;;6.15;;
54699;SDS011;40599;53.132;6.090;2023-08-12T02:05:16;12.23;;;6.43;;
54699;SDS011;40599;53.132;6.090;2023-08-12T02:07:42;11.32;;;6.35;;
54699;SDS011;40599;53.132;6.090;2023-08-12T02:10:08;12.45;;;5.82;;
54699;SDS011;40599;53.132;6.090;2023-08-12T02:12:35;11.32;;;6.45;;
54699;SDS011;40599;53.132;6.090;2023-08-12T02:15:05;14.03;;;6.97;;
54699;SDS011;40599;53.132;6.090;2023-08-12T02:17:31;12.00;;;6.63;;
54699;SDS011;40599;53.132;6.090;2023-08-12T02:19:57;10.85;;;6.85;;
54699;SDS011;40599;53.132;6.090;2023-08-12T02:22:24;11.90;;;6.30;;
54699;SDS011;40599;53.132;6.090;2023-08-12T02:24:50;9.05;;;6.13;;
54699;SDS011;40599;53.132;6.090;2023-08-12T02:27:16;12.25;;;6.78;;
54699;SDS011;40599;53.132;6.090;2023-08-12T02:29:42;13.73;;;7.43;;
54699;SDS011;40599;53.132;6.090;2023-08-12T02:35:32;12.97;;;6.70;;
54699;SDS011;40599;53.132;6.090;2023-08-12T02:40:25;15.67;;;6.60;;
54699;SDS011;40599;53.132;6.090;2023-08-12T02:42:51;11.25;;;6.20;;
54699;SDS011;40599;53.132;6.090;2023-08-12T02:45:17;13.35;;;7.45;;
54699;SDS011;40599;53.132;6.090;2023-08-12T02:47:43;14.35;;;7.20;;
54699;SDS011;40599;53.132;6.090;2023-08-12T02:50:09;13.25;;;6.35;;
54699;SDS011;40599;53.132;6.090;2023-08-12T02:52:35;11.52;;;6.40;;
54699;SDS011;40599;53.132;6.090;2023-08-12T02:55:17;14.18;;;7.68;;
54699;SDS011;40599;53.132;6.090;2023-08-12T02:57:43;15.17;;;7.43;;
54699;SDS011;40599;53.132;6.090;2023-08-12T03:00:09;11.07;;;6.97;;
54699;SDS011;40599;53.132;6.090;2023-08-12T03:02:35;15.07;;;7.40;;
54699;SDS011;40599;53.132;6.090;2023-08-12T03:05:01;14.27;;;8.40;;
54699;SDS011;40599;53.132;6.090;2023-08-12T03:07:28;14.05;;;7.10;;
54699;SDS011;40599;53.132;6.090;2023-08-12T03:09:54;16.58;;;8.90;;
54699;SDS011;40599;53.132;6.090;2023-08-12T03:12:20;14.65;;;8.27;;
54699;SDS011;40599;53.132;6.090;2023-08-12T03:14:46;13.77;;;8.02;;
54699;SDS011;40599;53.132;6.090;2023-08-12T03:17:12;18.13;;;9.30;;
54699;SDS011;40599;53.132;6.090;2023-08-12T03:19:39;13.88;;;9.00;;
54699;SDS011;40599;53.132;6.090;2023-08-12T03:25:02;13.53;;;8.83;;
54699;SDS011;40599;53.132;6.090;2023-08-12T03:27:29;16.05;;;8.52;;
54699;SDS011;40599;53.132;6.090;2023-08-12T03:29:55;16.55;;;8.70;;
54699;SDS011;40599;53.132;6.090;2023-08-12T03:32:21;17.48;;;9.32;;
54699;SDS011;40599;53.132;6.090;2023-08-12T03:34:47;15.10;;;9.13;;
54699;SDS011;40599;53.132;6.090;2023-08-12T03:37:13;16.85;;;9.20;;
54699;SDS011;40599;53.132;6.090;2023-08-12T03:39:39;14.63;;;8.75;;
54699;SDS011;40599;53.132;6.090;2023-08-12T03:42:06;16.75;;;9.75;;
54699;SDS011;40599;53.132;6.090;2023-08-12T03:44:32;15.88;;;10.13;;
54699;SDS011;40599;53.132;6.090;2023-08-12T03:46:58;14.95;;;9.43;;
54699;SDS011;40599;53.132;6.090;2023-08-12T03:49:24;14.95;;;9.55;;
54699;SDS011;40599;53.132;6.090;2023-08-12T03:51:50;15.68;;;9.32;;
54699;SDS011;40599;53.132;6.090;2023-08-12T03:54:16;14.10;;;9.30;;
54699;SDS011;40599;53.132;6.090;2023-08-12T03:56:43;16.95;;;8.20;;
54699;SDS011;40599;53.132;6.090;2023-08-12T03:59:09;16.05;;;9.25;;
54699;SDS011;40599;53.132;6.090;2023-08-12T04:01:36;17.50;;;9.20;;
54699;SDS011;40599;53.132;6.090;2023-08-12T04:04:03;16.37;;;9.67;;
54699;SDS011;40599;53.132;6.090;2023-08-12T04:06:29;15.05;;;9.15;;
54699;SDS011;40599;53.132;6.090;2023-08-12T04:08:55;16.35;;;9.45;;
54699;SDS011;40599;53.132;6.090;2023-08-12T04:11:21;15.45;;;9.25;;
54699;SDS011;40599;53.132;6.090;2023-08-12T04:13:47;15.70;;;8.98;;
54699;SDS011;40599;53.132;6.090;2023-08-12T04:16:13;18.98;;;9.07;;
54699;SDS011;40599;53.132;6.090;2023-08-12T04:18:40;14.20;;;9.23;;
54699;SDS011;40599;53.132;6.090;2023-08-12T04:23:32;19.93;;;9.37;;
54699;SDS011;40599;53.132;6.090;2023-08-12T04:25:59;16.95;;;9.00;;
54699;SDS011;40599;53.132;6.090;2023-08-12T04:28:25;14.50;;;9.05;;
54699;SDS011;40599;53.132;6.090;2023-08-12T04:30:51;14.85;;;9.15;;
54699;SDS011;40599;53.132;6.090;2023-08-12T04:33:18;16.65;;;8.82;;
54699;SDS011;40599;53.132;6.090;2023-08-12T04:35:46;16.23;;;9.10;;
54699;SDS011;40599;53.132;6.090;2023-08-12T04:38:13;17.58;;;9.40;;
54699;SDS011;40599;53.132;6.090;2023-08-12T04:40:40;15.07;;;8.37;;
54699;SDS011;40599;53.132;6.090;2023-08-12T04:43:09;20.95;;;8.85;;
54699;SDS011;40599;53.132;6.090;2023-08-12T04:45:36;16.77;;;8.13;;
54699;SDS011;40599;53.132;6.090;2023-08-12T04:51:07;16.03;;;8.37;;
54699;SDS011;40599;53.132;6.090;2023-08-12T04:53:33;14.32;;;8.30;;
54699;SDS011;40599;53.132;6.090;2023-08-12T04:55:59;16.50;;;7.75;;
54699;SDS011;40599;53.132;6.090;2023-08-12T04:58:25;15.65;;;8.10;;
54699;SDS011;40599;53.132;6.090;2023-08-12T05:00:51;16.38;;;7.95;;
54699;SDS011;40599;53.132;6.090;2023-08-12T05:03:23;10.73;;;7.50;;
54699;SDS011;40599;53.132;6.090;2023-08-12T05:05:51;12.47;;;7.23;;
54699;SDS011;40599;53.132;6.090;2023-08-12T05:08:17;13.53;;;8.53;;
54699;SDS011;40599;53.132;6.090;2023-08-12T05:10:43;18.75;;;8.05;;
54699;SDS011;40599;53.132;6.090;2023-08-12T05:13:09;19.52;;;9.70;;
54699;SDS011;40599;53.132;6.090;2023-08-12T05:15:36;13.10;;;8.05;;
54699;SDS011;40599;53.132;6.090;2023-08-12T05:18:11;20.83;;;7.97;;
54699;SDS011;40599;53.132;6.090;2023-08-12T05:20:38;13.27;;;7.93;;
54699;SDS011;40599;53.132;6.090;2023-08-12T05:23:05;14.43;;;8.17;;
54699;SDS011;40599;53.132;6.090;2023-08-12T05:25:31;16.95;;;7.68;;
54699;SDS011;40599;53.132;6.090;2023-08-12T05:27:57;17.05;;;9.50;;
54699;SDS011;40599;53.132;6.090;2023-08-12T05:30:24;16.20;;;7.60;;
54699;SDS011;40599;53.132;6.090;2023-08-12T05:32:50;15.30;;;8.88;;
54699;SDS011;40599;53.132;6.090;2023-08-12T05:35:16;14.02;;;8.07;;
54699;SDS011;40599;53.132;6.090;2023-08-12T05:37:42;14.40;;;8.15;;
54699;SDS011;40599;53.132;6.090;2023-08-12T05:40:09;16.10;;;9.57;;
54699;SDS011;40599;53.132;6.090;2023-08-12T05:42:36;16.27;;;8.70;;
54699;SDS011;40599;53.132;6.090;2023-08-12T05:45:02;18.05;;;8.48;;
54699;SDS011;40599;53.132;6.090;2023-08-12T05:47:29;19.52;;;8.57;;
54699;SDS011;40599;53.132;6.090;2023-08-12T05:49:55;11.35;;;7.63;;
54699;SDS011;40599;53.132;6.090;2023-08-12T05:52:21;17.77;;;9.38;;
54699;SDS011;40599;53.132;6.090;2023-08-12T05:54:47;14.00;;;8.52;;
54699;SDS011;40599;53.132;6.090;2023-08-12T05:57:13;21.90;;;8.15;;
54699;SDS011;40599;53.132;6.090;2023-08-12T05:59:39;13.98;;;8.73;;
54699;SDS011;40599;53.132;6.090;2023-08-12T06:02:05;15.48;;;9.23;;
54699;SDS011;40599;53.132;6.090;2023-08-12T06:04:32;20.10;;;9.73;;
54699;SDS011;40599;53.132;6.090;2023-08-12T06:06:58;20.33;;;9.73;;
54699;SDS011;40599;53.132;6.090;2023-08-12T06:09:24;19.55;;;10.00;;
54699;SDS011;40599;53.132;6.090;2023-08-12T06:11:50;20.08;;;9.10;;
54699;SDS011;40599;53.132;6.090;2023-08-12T06:14:16;20.63;;;10.35;;
54699;SDS011;40599;53.132;6.090;2023-08-12T06:16:42;15.13;;;9.10;;
54699;SDS011;40599;53.132;6.090;2023-08-12T06:19:27;18.27;;;10.60;;
54699;SDS011;40599;53.132;6.090;2023-08-12T06:21:53;17.17;;;9.57;;
54699;SDS011;40599;53.132;6.090;2023-08-12T06:24:19;23.48;;;10.65;;
54699;SDS011;40599;53.132;6.090;2023-08-12T06:26:45;24.00;;;12.00;;
54699;SDS011;40599;53.132;6.090;2023-08-12T06:29:11;26.83;;;12.00;;
54699;SDS011;40599;53.132;6.090;2023-08-12T06:31:37;28.20;;;12.00;;
54699;SDS011;40599;53.132;6.090;2023-08-12T06:34:04;18.23;;;10.80;;
54699;SDS011;40599;53.132;6.090;2023-08-12T06:36:30;24.95;;;11.65;;
54699;SDS011;40599;53.132;6.090;2023-08-12T06:38:56;23.73;;;12.40;;
54699;SDS011;40599;53.132;6.090;2023-08-12T06:41:34;20.67;;;11.20;;
54699;SDS011;40599;53.132;6.090;2023-08-12T06:44:00;17.97;;;11.20;;
54699;SDS011;40599;53.132;6.090;2023-08-12T06:46:28;24.73;;;11.47;;
54699;SDS011;40599;53.132;6.090;2023-08-12T06:48:55;19.33;;;11.73;;
54699;SDS011;40599;53.132;6.090;2023-08-12T06:51:22;21.13;;;11.70;;
54699;SDS011;40599;53.132;6.090;2023-08-12T06:53:49;24.40;;;12.85;;
54699;SDS011;40599;53.132;6.090;2023-08-12T06:56:17;19.40;;;12.30;;
54699;SDS011;40599;53.132;6.090;2023-08-12T06:58:44;22.85;;;13.00;;
54699;SDS011;40599;53.132;6.090;2023-08-12T07:01:10;19.48;;;12.60;;
54699;SDS011;40599;53.132;6.090;2023-08-12T07:03:36;22.48;;;12.82;;
54699;SDS011;40599;53.132;6.090;2023-08-12T07:06:02;25.85;;;13.07;;
54699;SDS011;40599;53.132;6.090;2023-08-12T07:08:28;26.05;;;13.35;;
54699;SDS011;40599;53.132;6.090;2023-08-12T07:10:54;23.00;;;13.43;;
54699;SDS011;40599;53.132;6.090;2023-08-12T07:13:21;23.95;;;14.02;;
54699;SDS011;40599;53.132;6.090;2023-08-12T07:15:47;23.17;;;13.27;;
54699;SDS011;40599;53.132;6.090;2023-08-12T07:18:13;21.50;;;13.25;;
54699;SDS011;40599;53.132;6.090;2023-08-12T07:20:39;23.80;;;13.10;;
54699;SDS011;40599;53.132;6.090;2023-08-12T07:23:05;24.65;;;12.93;;
54699;SDS011;40599;53.132;6.090;2023-08-12T07:25:31;23.75;;;13.88;;
54699;SDS011;40599;53.132;6.090;2023-08-12T07:27:57;23.05;;;12.00;;
54699;SDS011;40599;53.132;6.090;2023-08-12T07:30:23;24.33;;;14.18;;
54699;SDS011;40599;53.132;6.090;2023-08-12T07:32:50;27.52;;;14.80;;
54699;SDS011;40599;53.132;6.090;2023-08-12T07:35:16;21.92;;;12.05;;
54699;SDS011;40599;53.132;6.090;2023-08-12T07:37:42;21.23;;;12.07;;
54699;SDS011;40599;53.132;6.090;2023-08-12T07:40:08;24.42;;;12.93;;
54699;SDS011;40599;53.132;6.090;2023-08-12T07:42:34;25.70;;;13.65;;
54699;SDS011;40599;53.132;6.090;2023-08-12T07:45:01;24.88;;;13.48;;
54699;SDS011;40599;53.132;6.090;2023-08-12T07:47:27;24.10;;;13.68;;
54699;SDS011;40599;53.132;6.090;2023-08-12T07:49:53;19.52;;;12.90;;
54699;SDS011;40599;53.132;6.090;2023-08-12T07:52:19;19.15;;;13.23;;
54699;SDS011;40599;53.132;6.090;2023-08-12T07:54:45;21.58;;;14.00;;
54699;SDS011;40599;53.132;6.090;2023-08-12T07:57:12;27.35;;;13.75;;
54699;SDS011;40599;53.132;6.090;2023-08-12T07:59:38;22.58;;;13.10;;
54699;SDS011;40599;53.132;6.090;2023-08-12T08:02:04;26.65;;;13.43;;
54699;SDS011;40599;53.132;6.090;2023-08-12T08:04:30;21.90;;;14.15;;
54699;SDS011;40599;53.132;6.090;2023-08-12T08:06:56;24.05;;;14.02;;
54699;SDS011;40599;53.132;6.090;2023-08-12T08:09:23;25.38;;;14.07;;
54699;SDS011;40599;53.132;6.090;2023-08-12T08:11:49;22.87;;;14.63;;
54699;SDS011;40599;53.132;6.090;2023-08-12T08:14:15;23.13;;;14.57;;
54699;SDS011;40599;53.132;6.090;2023-08-12T08:16:42;29.15;;;15.85;;
54699;SDS011;40599;53.132;6.090;2023-08-12T08:19:08;27.30;;;14.23;;
54699;SDS011;40599;53.132;6.090;2023-08-12T08:21:35;26.50;;;14.02;;
54699;SDS011;40599;53.132;6.090;2023-08-12T08:24:01;22.17;;;13.37;;
54699;SDS011;40599;53.132;6.090;2023-08-12T08:26:27;23.02;;;13.98;;
54699;SDS011;40599;53.132;6.090;2023-08-12T08:28:53;24.63;;;16.25;;
54699;SDS011;40599;53.132;6.090;2023-08-12T08:31:20;28.70;;;16.23;;
54699;SDS011;40599;53.132;6.090;2023-08-12T08:33:46;28.88;;;15.80;;
54699;SDS011;40599;53.132;6.090;2023-08-12T08:36:12;26.27;;;16.77;;
54699;SDS011;40599;53.132;6.090;2023-08-12T08:38:38;28.48;;;17.25;;
54699;SDS011;40599;53.132;6.090;2023-08-12T08:41:05;28.90;;;18.30;;
54699;SDS011;40599;53.132;6.090;2023-08-12T08:43:32;34.03;;;18.20;;
54699;SDS011;40599;53.132;6.090;2023-08-12T08:46:19;29.47;;;17.23;;
54699;SDS011;40599;53.132;6.090;2023-08-12T08:48:45;25.10;;;17.40;;
54699;SDS011;40599;53.132;6.090;2023-08-12T08:54:30;34.93;;;20.10;;
54699;SDS011;40599;53.132;6.090;2023-08-12T08:56:56;29.60;;;19.05;;
54699;SDS011;40599;53.132;6.090;2023-08-12T08:59:22;32.95;;;21.05;;
54699;SDS011;40599;53.132;6.090;2023-08-12T09:01:49;33.97;;;20.70;;
54699;SDS011;40599;53.132;6.090;2023-08-12T09:04:18;29.00;;;19.50;;
54699;SDS011;40599;53.132;6.090;2023-08-12T09:06:46;33.77;;;21.30;;
54699;SDS011;40599;53.132;6.090;2023-08-12T09:09:14;28.37;;;18.70;;
54699;SDS011;40599;53.132;6.090;2023-08-12T09:11:42;27.03;;;18.73;;
54699;SDS011;40599;53.132;6.090;2023-08-12T09:14:10;28.43;;;18.73;;
54699;SDS011;40599;53.132;6.090;2023-08-12T09:19:03;30.93;;;20.83;;
54699;SDS011;40599;53.132;6.090;2023-08-12T09:21:30;32.70;;;20.47;;
54699;SDS011;40599;53.132;6.090;2023-08-12T09:23:56;39.05;;;23.63;;
54699;SDS011;40599;53.132;6.090;2023-08-12T09:26:23;26.47;;;18.90;;
54699;SDS011;40599;53.132;6.090;2023-08-12T09:28:49;30.58;;;19.35;;
54699;SDS011;40599;53.132;6.090;2023-08-12T09:31:29;32.15;;;19.45;;
54699;SDS011;40599;53.132;6.090;2023-08-12T09:34:13;28.40;;;18.93;;
54699;SDS011;40599;53.132;6.090;2023-08-12T09:36:39;32.73;;;20.67;;
54699;SDS011;40599;53.132;6.090;2023-08-12T09:39:06;27.52;;;19.33;;
54699;SDS011;40599;53.132;6.090;2023-08-12T09:41:33;27.93;;;18.10;;
54699;SDS011;40599;53.132;6.090;2023-08-12T09:44:01;29.55;;;19.80;;
54699;SDS011;40599;53.132;6.090;2023-08-12T09:46:28;26.63;;;18.63;;
54699;SDS011;40599;53.132;6.090;2023-08-12T09:48:54;26.40;;;19.05;;
54699;SDS011;40599;53.132;6.090;2023-08-12T09:51:20;24.35;;;17.25;;
54699;SDS011;40599;53.132;6.090;2023-08-12T09:53:47;26.23;;;17.37;;
54699;SDS011;40599;53.132;6.090;2023-08-12T09:56:19;29.70;;;19.13;;
54699;SDS011;40599;53.132;6.090;2023-08-12T10:01:51;23.53;;;17.03;;
54699;SDS011;40599;53.132;6.090;2023-08-12T10:04:19;22.90;;;16.97;;
54699;SDS011;40599;53.132;6.090;2023-08-12T10:06:47;20.67;;;15.73;;
54699;SDS011;40599;53.132;6.090;2023-08-12T10:09:17;18.90;;;14.83;;
54699;SDS011;40599;53.132;6.090;2023-08-12T10:11:43;18.77;;;14.27;;
54699;SDS011;40599;53.132;6.090;2023-08-12T10:14:10;18.45;;;13.98;;
54699;SDS011;40599;53.132;6.090;2023-08-12T10:16:36;17.92;;;12.55;;
54699;SDS011;40599;53.132;6.090;2023-08-12T10:19:02;16.38;;;11.30;;
54699;SDS011;40599;53.132;6.090;2023-08-12T10:24:34;15.20;;;11.93;;
54699;SDS011;40599;53.132;6.090;2023-08-12T10:27:01;19.40;;;11.93;;
54699;SDS011;40599;53.132;6.090;2023-08-12T10:29:27;13.75;;;9.75;;
54699;SDS011;40599;53.132;6.090;2023-08-12T10:31:55;12.43;;;9.53;;
54699;SDS011;40599;53.132;6.090;2023-08-12T10:34:22;12.57;;;8.65;;
54699;SDS011;40599;53.132;6.090;2023-08-12T10:37:01;14.37;;;9.77;;
54699;SDS011;40599;53.132;6.090;2023-08-12T10:39:28;9.93;;;7.43;;
54699;SDS011;40599;53.132;6.090;2023-08-12T10:41:55;7.47;;;3.53;;
54699;SDS011;40599;53.132;6.090;2023-08-12T10:50:30;9.07;;;2.70;;
54699;SDS011;40599;53.132;6.090;2023-08-12T10:52:56;6.50;;;2.40;;
54699;SDS011;40599;53.132;6.090;2023-08-12T10:55:26;7.82;;;2.40;;
54699;SDS011;40599;53.132;6.090;2023-08-12T10:57:55;9.00;;;2.00;;
54699;SDS011;40599;53.132;6.090;2023-08-12T11:00:24;8.27;;;2.60;;
54699;SDS011;40599;53.132;6.090;2023-08-12T11:02:51;10.97;;;3.37;;
54699;SDS011;40599;53.132;6.090;2023-08-12T11:05:35;6.37;;;2.40;;
54699;SDS011;40599;53.132;6.090;2023-08-12T11:08:02;6.07;;;2.00;;
54699;SDS011;40599;53.132;6.090;2023-08-12T11:10:32;7.10;;;2.13;;
54699;SDS011;40599;53.132;6.090;2023-08-12T11:12:59;5.30;;;2.30;;
54699;SDS011;40599;53.132;6.090;2023-08-12T11:15:32;6.63;;;2.72;;
54699;SDS011;40599;53.132;6.090;2023-08-12T11:17:59;5.67;;;2.43;;
54699;SDS011;40599;53.132;6.090;2023-08-12T11:20:28;8.53;;;2.43;;
54699;SDS011;40599;53.132;6.090;2023-08-12T11:22:54;6.13;;;3.05;;
54699;SDS011;40599;53.132;6.090;2023-08-12T11:25:20;6.95;;;2.78;;
54699;SDS011;40599;53.132;6.090;2023-08-12T11:27:47;6.30;;;2.58;;
54699;SDS011;40599;53.132;6.090;2023-08-12T11:30:14;6.83;;;2.27;;
54699;SDS011;40599;53.132;6.090;2023-08-12T11:32:41;8.07;;;2.87;;
54699;SDS011;40599;53.132;6.090;2023-08-12T11:35:08;7.47;;;2.57;;
54699;SDS011;40599;53.132;6.090;2023-08-12T11:37:36;9.03;;;2.50;;
54699;SDS011;40599;53.132;6.090;2023-08-12T11:40:03;8.67;;;2.47;;
54699;SDS011;40599;53.132;6.090;2023-08-12T11:42:30;7.87;;;2.70;;
54699;SDS011;40599;53.132;6.090;2023-08-12T11:44:56;6.40;;;2.72;;
54699;SDS011;40599;53.132;6.090;2023-08-12T11:47:23;7.88;;;2.45;;
54699;SDS011;40599;53.132;6.090;2023-08-12T11:49:49;8.13;;;2.58;;
54699;SDS011;40599;53.132;6.090;2023-08-12T11:52:15;9.70;;;2.70;;
54699;SDS011;40599;53.132;6.090;2023-08-12T11:54:41;8.45;;;2.65;;
54699;SDS011;40599;53.132;6.090;2023-08-12T11:57:07;9.55;;;2.67;;
54699;SDS011;40599;53.132;6.090;2023-08-12T11:59:34;6.93;;;2.80;;
54699;SDS011;40599;53.132;6.090;2023-08-12T12:02:01;10.15;;;3.65;;
54699;SDS011;40599;53.132;6.090;2023-08-12T12:04:27;10.90;;;3.53;;
54699;SDS011;40599;53.132;6.090;2023-08-12T12:06:53;11.88;;;3.38;;
54699;SDS011;40599;53.132;6.090;2023-08-12T12:09:20;11.20;;;3.20;;
54699;SDS011;40599;53.132;6.090;2023-08-12T12:11:46;9.57;;;3.45;;
54699;SDS011;40599;53.132;6.090;2023-08-12T12:14:12;9.25;;;3.42;;
54699;SDS011;40599;53.132;6.090;2023-08-12T12:19:17;10.73;;;3.63;;
54699;SDS011;40599;53.132;6.090;2023-08-12T12:21:45;9.35;;;3.67;;
54699;SDS011;40599;53.132;6.090;2023-08-12T12:24:11;10.50;;;4.00;;
54699;SDS011;40599;53.132;6.090;2023-08-12T12:26:37;8.63;;;3.20;;
54699;SDS011;40599;53.132;6.090;2023-08-12T12:29:04;9.55;;;3.42;;
54699;SDS011;40599;53.132;6.090;2023-08-12T12:31:35;13.20;;;3.30;;
54699;SDS011;40599;53.132;6.090;2023-08-12T12:34:02;8.77;;;2.83;;
54699;SDS011;40599;53.132;6.090;2023-08-12T12:36:32;11.70;;;3.10;;
54699;SDS011;40599;53.132;6.090;2023-08-12T12:39:00;8.53;;;2.93;;
54699;SDS011;40599;53.132;6.090;2023-08-12T12:41:28;8.93;;;2.93;;
54699;SDS011;40599;53.132;6.090;2023-08-12T12:43:54;7.90;;;3.00;;
54699;SDS011;40599;53.132;6.090;2023-08-12T12:46:20;10.95;;;3.70;;
54699;SDS011;40599;53.132;6.090;2023-08-12T12:48:47;10.35;;;3.40;;
54699;SDS011;40599;53.132;6.090;2023-08-12T12:51:13;9.43;;;3.50;;
54699;SDS011;40599;53.132;6.090;2023-08-12T12:53:39;12.05;;;4.13;;
54699;SDS011;40599;53.132;6.090;2023-08-12T12:56:05;11.82;;;3.45;;
54699;SDS011;40599;53.132;6.090;2023-08-12T13:01:01;11.57;;;3.80;;
54699;SDS011;40599;53.132;6.090;2023-08-12T13:03:33;13.13;;;3.23;;
54699;SDS011;40599;53.132;6.090;2023-08-12T13:05:59;9.40;;;3.10;;
54699;SDS011;40599;53.132;6.090;2023-08-12T13:08:28;11.47;;;3.13;;
54699;SDS011;40599;53.132;6.090;2023-08-12T13:10:55;13.23;;;4.10;;
54699;SDS011;40599;53.132;6.090;2023-08-12T13:13:21;8.63;;;2.90;;
54699;SDS011;40599;53.132;6.090;2023-08-12T13:15:47;12.75;;;2.50;;
54699;SDS011;40599;53.132;6.090;2023-08-12T13:18:13;11.60;;;2.55;;
54699;SDS011;40599;53.132;6.090;2023-08-12T13:20:40;12.13;;;2.30;;
54699;SDS011;40599;53.132;6.090;2023-08-12T13:23:06;10.80;;;2.60;;
54699;SDS011;40599;53.132;6.090;2023-08-12T13:25:32;7.78;;;2.28;;
54699;SDS011;40599;53.132;6.090;2023-08-12T13:28:02;14.43;;;2.87;;
54699;SDS011;40599;53.132;6.090;2023-08-12T13:30:28;12.03;;;3.43;;
54699;SDS011;40599;53.132;6.090;2023-08-12T13:32:54;8.30;;;2.40;;
54699;SDS011;40599;53.132;6.090;2023-08-12T13:35:21;10.07;;;2.33;;
54699;SDS011;40599;53.132;6.090;2023-08-12T13:40:13;15.03;;;2.83;;
54699;SDS011;40599;53.132;6.090;2023-08-12T13:45:06;9.27;;;2.20;;
54699;SDS011;40599;53.132;6.090;2023-08-12T13:47:33;6.72;;;2.10;;
54699;SDS011;40599;53.132;6.090;2023-08-12T13:50:00;10.97;;;2.37;;
54699;SDS011;40599;53.132;6.090;2023-08-12T13:52:26;7.70;;;2.00;;
54699;SDS011;40599;53.132;6.090;2023-08-12T13:54:52;11.63;;;2.17;;
54699;SDS011;40599;53.132;6.090;2023-08-12T13:57:18;6.30;;;1.92;;
54699;SDS011;40599;53.132;6.090;2023-08-12T13:59:44;7.63;;;2.17;;
54699;SDS011;40599;53.132;6.090;2023-08-12T14:02:11;11.57;;;2.50;;
54699;SDS011;40599;53.132;6.090;2023-08-12T14:07:03;7.60;;;2.13;;
54699;SDS011;40599;53.132;6.090;2023-08-12T14:11:56;8.57;;;1.87;;
54699;SDS011;40599;53.132;6.090;2023-08-12T14:14:22;9.33;;;2.63;;
54699;SDS011;40599;53.132;6.090;2023-08-12T14:16:48;10.68;;;2.58;;
54699;SDS011;40599;53.132;6.090;2023-08-12T14:19:14;9.18;;;2.50;;
54699;SDS011;40599;53.132;6.090;2023-08-12T14:21:42;10.83;;;3.10;;
54699;SDS011;40599;53.132;6.090;2023-08-12T14:24:08;11.00;;;2.30;;
54699;SDS011;40599;53.132;6.090;2023-08-12T14:26:34;7.32;;;2.13;;
54699;SDS011;40599;53.132;6.090;2023-08-12T14:29:01;9.48;;;2.25;;
54699;SDS011;40599;53.132;6.090;2023-08-12T14:31:27;8.50;;;2.17;;
54699;SDS011;40599;53.132;6.090;2023-08-12T14:33:53;11.82;;;2.40;;
54699;SDS011;40599;53.132;6.090;2023-08-12T14:36:19;7.93;;;2.60;;
54699;SDS011;40599;53.132;6.090;2023-08-12T14:38:45;12.13;;;2.75;;
54699;SDS011;40599;53.132;6.090;2023-08-12T14:41:11;11.57;;;2.45;;
54699;SDS011;40599;53.132;6.090;2023-08-12T14:43:37;12.25;;;2.42;;
54699;SDS011;40599;53.132;6.090;2023-08-12T14:46:03;8.35;;;2.67;;
54699;SDS011;40599;53.132;6.090;2023-08-12T14:48:31;8.15;;;2.30;;
54699;SDS011;40599;53.132;6.090;2023-08-12T14:50:57;11.37;;;2.80;;
54699;SDS011;40599;53.132;6.090;2023-08-12T14:53:24;14.23;;;3.40;;
54699;SDS011;40599;53.132;6.090;2023-08-12T14:55:50;10.97;;;3.10;;
54699;SDS011;40599;53.132;6.090;2023-08-12T14:58:16;9.02;;;2.72;;
54699;SDS011;40599;53.132;6.090;2023-08-12T15:00:43;12.52;;;2.75;;
54699;SDS011;40599;53.132;6.090;2023-08-12T15:03:09;14.27;;;2.75;;
54699;SDS011;40599;53.132;6.090;2023-08-12T15:05:39;11.73;;;2.87;;
54699;SDS011;40599;53.132;6.090;2023-08-12T15:08:05;15.48;;;3.17;;
54699;SDS011;40599;53.132;6.090;2023-08-12T15:10:32;12.23;;;2.45;;
54699;SDS011;40599;53.132;6.090;2023-08-12T15:15:24;11.17;;;2.90;;
54699;SDS011;40599;53.132;6.090;2023-08-12T15:17:50;10.48;;;2.60;;
54699;SDS011;40599;53.132;6.090;2023-08-12T15:20:16;10.85;;;2.83;;
54699;SDS011;40599;53.132;6.090;2023-08-12T15:22:43;8.55;;;2.33;;
54699;SDS011;40599;53.132;6.090;2023-08-12T15:25:09;12.73;;;2.50;;
54699;SDS011;40599;53.132;6.090;2023-08-12T15:27:35;14.30;;;3.08;;